createdAt,value
2022-10-25T00:04:33.674Z,100037.97
2022-10-25T00:09:36.426Z,100033.00
2022-10-25T00:14:38.999Z,100036.69
2022-10-25T00:19:43.126Z,100034.88
2022-10-25T00:24:46.400Z,100035.97
2022-10-25T00:29:49.173Z,100043.94
2022-10-25T00:34:53.564Z,100052.84
2022-10-25T00:39:56.348Z,100044.78
2022-10-25T00:44:59.427Z,100052.84
2022-10-25T00:50:04.720Z,100048.88
2022-10-25T00:55:09.309Z,100045.03
2022-10-25T01:00:12.921Z,100052.53
2022-10-25T01:05:18.144Z,100060.44
2022-10-25T01:10:20.971Z,100058.81
2022-10-25T01:15:26.163Z,100050.31
2022-10-25T01:21:10.387Z,100060.78
2022-10-25T01:26:34.862Z,100050.16
2022-10-25T01:31:44.919Z,100051.00
2022-10-25T01:36:57.021Z,100047.31
2022-10-25T01:42:07.379Z,100050.00
2022-10-25T01:47:18.519Z,100055.25
2022-10-25T01:52:23.095Z,100059.66
2022-10-25T01:57:43.667Z,100057.81
2022-10-25T02:03:02.533Z,100071.59
2022-10-25T02:08:14.265Z,100060.63
2022-10-25T02:13:24.091Z,100071.97
2022-10-25T02:23:40.661Z,100064.88
2022-10-25T02:28:43.749Z,100068.41
2022-10-25T02:33:48.856Z,100071.38
2022-10-25T02:38:53.152Z,100068.28
2022-10-25T02:43:55.980Z,100075.94
2022-10-25T02:49:00.077Z,100082.59
2022-10-25T02:54:02.879Z,100075.69
2022-10-25T02:59:05.756Z,100076.81
2022-10-25T03:04:09.911Z,100082.03
2022-10-25T03:09:12.665Z,100088.38
2022-10-25T03:14:15.611Z,100086.84
2022-10-25T03:19:19.721Z,100090.97
2022-10-25T03:24:22.481Z,100104.28
2022-10-25T03:29:25.127Z,100093.19
2022-10-25T03:34:29.399Z,100097.34
2022-10-25T03:39:32.197Z,100106.38
2022-10-25T03:44:35.054Z,100108.81
2022-10-25T03:49:39.207Z,100117.28
2022-10-25T03:54:42.364Z,100118.72
2022-10-25T03:59:45.444Z,100125.31
2022-10-25T04:04:49.600Z,100135.31
2022-10-25T04:09:52.349Z,100135.16
2022-10-25T04:14:55.136Z,100137.00
2022-10-25T04:19:59.080Z,100145.50
2022-10-25T04:25:01.988Z,100153.31
2022-10-25T04:30:05.234Z,100148.38
2022-10-25T04:35:10.913Z,100140.56
2022-10-25T04:40:14.098Z,100148.97
2022-10-25T04:45:17.045Z,100146.25
2022-10-25T04:50:21.467Z,100143.44
2022-10-25T04:55:24.192Z,100152.31
2022-10-25T05:00:27.296Z,100158.13
2022-10-25T05:05:31.396Z,100160.31
2022-10-25T05:10:34.178Z,100164.66
2022-10-25T05:15:37.046Z,100171.22
2022-10-25T05:20:41.151Z,100172.78
2022-10-25T05:25:43.908Z,100181.41
2022-10-25T05:30:46.760Z,100178.88
2022-10-25T05:35:50.908Z,100184.22
2022-10-25T05:40:54.855Z,100190.78
2022-10-25T05:46:03.666Z,100211.47
2022-10-25T05:51:32.234Z,100199.00
2022-10-25T05:56:36.643Z,100204.97
2022-10-25T06:01:41.531Z,100217.44
2022-10-25T06:06:48.052Z,100215.31
2022-10-25T06:11:50.817Z,100217.72
2022-10-25T06:16:53.647Z,100221.56
2022-10-25T06:21:57.760Z,100224.22
2022-10-25T06:27:00.513Z,100239.97
2022-10-25T06:32:03.735Z,100241.09
2022-10-25T06:37:08.017Z,100250.81
2022-10-25T06:42:10.794Z,100247.72
2022-10-25T06:47:17.410Z,100255.59
2022-10-25T06:52:21.962Z,100270.94
2022-10-25T06:57:24.676Z,100271.47
2022-10-25T07:02:27.369Z,100283.25
2022-10-25T07:07:31.546Z,100287.91
2022-10-25T07:12:38.054Z,100294.88
2022-10-25T07:17:40.950Z,100301.69
2022-10-25T07:22:45.069Z,100317.13
2022-10-25T07:27:48.076Z,100314.88
2022-10-25T07:32:51.137Z,100319.88
2022-10-25T07:37:55.392Z,100323.94
2022-10-25T07:42:58.209Z,100342.72
2022-10-25T07:48:01.229Z,100337.16
2022-10-25T07:53:05.396Z,100345.44
2022-10-25T07:58:10.709Z,100343.28
2022-10-25T08:03:13.554Z,100357.09
2022-10-25T08:08:17.793Z,100366.06
2022-10-25T08:13:20.609Z,100371.28
2022-10-25T08:18:23.856Z,100363.47
2022-10-25T08:23:29.307Z,100364.31
2022-10-25T08:28:32.242Z,100365.75
2022-10-25T08:33:35.073Z,100375.28
2022-10-25T08:38:39.255Z,100382.25
2022-10-25T08:43:55.321Z,100384.91
2022-10-25T08:49:11.555Z,100386.69
2022-10-25T08:54:24.033Z,100379.16
2022-10-25T08:59:31.143Z,100391.88
2022-10-25T09:04:34.604Z,100403.69
2022-10-25T09:09:49.081Z,100387.00
2022-10-25T09:15:01.558Z,100395.50
2022-10-25T09:20:07.552Z,100403.63
2022-10-25T09:25:21.581Z,100396.59
2022-10-25T09:30:24.333Z,100408.41
2022-10-25T09:35:32.048Z,100404.56
2022-10-25T09:40:47.976Z,100404.13
2022-10-25T09:45:55.233Z,100414.25
2022-10-25T09:51:06.593Z,100433.50
2022-10-25T09:56:10.845Z,100434.94
2022-10-25T10:01:17.941Z,100441.50
2022-10-25T10:06:23.871Z,100441.22
2022-10-25T10:11:29.317Z,100445.78
2022-10-25T10:16:35.577Z,100458.34
2022-10-25T10:21:42.320Z,100452.19
2022-10-25T10:26:51.477Z,100466.84
2022-10-25T10:31:56.553Z,100461.25
2022-10-25T10:37:03.854Z,100458.25
2022-10-25T10:42:17.611Z,100466.75
2022-10-25T10:47:22.600Z,100460.34
2022-10-25T10:52:29.393Z,100460.56
2022-10-25T10:57:36.043Z,100469.22
2022-10-25T11:02:41.393Z,100478.34
2022-10-25T11:07:44.597Z,100488.72
2022-10-25T11:13:06.532Z,100490.03
2022-10-25T11:18:10.642Z,100481.84
2022-10-25T11:23:20.346Z,100497.34
2022-10-25T11:28:41.533Z,100506.19
2022-10-25T11:33:58.457Z,100498.47
2022-10-25T11:39:12.224Z,100495.44
2022-10-25T11:44:54.919Z,100508.13
2022-10-25T11:50:12.730Z,100504.66
2022-10-25T11:55:28.396Z,100503.19
2022-10-25T12:00:45.421Z,100485.50
2022-10-25T12:05:57.659Z,100492.28
2022-10-25T12:11:05.573Z,100482.94
2022-10-25T12:16:15.250Z,100489.50
2022-10-25T12:21:23.135Z,100498.78
2022-10-25T12:26:30.488Z,100494.97
2022-10-25T12:31:39.131Z,100489.06
2022-10-25T12:36:45.021Z,100492.13
2022-10-25T12:41:52.461Z,100490.78
2022-10-25T12:47:14.411Z,100502.53
2022-10-25T12:52:29.338Z,100501.97
2022-10-25T12:57:46.104Z,100511.00
2022-10-25T13:03:25.421Z,100519.50
2022-10-25T13:08:30.270Z,100500.22
2022-10-25T13:13:35.434Z,100503.25
2022-10-25T13:18:46.002Z,100512.00
2022-10-25T13:24:10.106Z,100498.13
2022-10-25T13:29:47.606Z,100508.13
2022-10-25T13:34:51.775Z,100504.28
2022-10-25T13:39:55.331Z,100504.06
2022-10-25T13:45:06.109Z,100502.34
2022-10-25T13:55:25.240Z,100500.38
2022-10-25T14:00:37.321Z,100504.66
2022-10-25T14:06:23.766Z,100510.25
2022-10-25T14:11:36.476Z,100507.75
2022-10-25T14:16:45.588Z,100510.44
2022-10-25T14:21:52.481Z,100506.19
2022-10-25T14:26:56.751Z,100496.09
2022-10-25T14:31:59.935Z,100499.50
2022-10-25T14:37:04.092Z,100510.66
2022-10-25T14:42:17.350Z,100521.28
2022-10-25T14:47:30.636Z,100519.41
2022-10-25T14:52:34.866Z,100511.16
2022-10-25T14:57:37.685Z,100512.94
2022-10-25T15:02:41.533Z,100516.34
2022-10-25T15:07:47.862Z,100522.28
2022-10-25T15:12:52.273Z,100513.06
2022-10-25T15:17:55.107Z,100512.78
2022-10-25T15:23:07.166Z,100510.53
2022-10-25T15:28:11.712Z,100504.91
2022-10-25T15:33:17.039Z,100507.53
2022-10-25T15:38:21.105Z,100510.34
2022-10-25T15:43:23.861Z,100503.44
2022-10-25T15:48:26.649Z,100510.03
2022-10-25T15:53:30.757Z,100499.97
2022-10-25T15:58:33.509Z,100496.66
2022-10-25T16:03:36.239Z,100503.81
2022-10-25T16:08:40.454Z,100500.91
2022-10-25T16:13:46.348Z,100509.66
2022-10-25T16:18:49.133Z,100508.75
2022-10-25T16:23:53.235Z,100509.28
2022-10-25T16:28:56.121Z,100514.84
2022-10-25T16:33:58.832Z,100516.75
2022-10-25T16:39:04.211Z,100520.13
2022-10-25T16:44:07.479Z,100514.31
2022-10-25T16:49:10.293Z,100519.72
2022-10-25T16:54:15.642Z,100524.69
2022-10-25T16:59:18.556Z,100518.31
2022-10-25T17:04:23.286Z,100520.00
2022-10-25T17:09:27.373Z,100514.47
2022-10-25T17:14:30.156Z,100510.78
2022-10-25T17:19:32.965Z,100520.31
2022-10-25T17:24:37.630Z,100517.44
2022-10-25T17:29:40.564Z,100525.97
2022-10-25T17:34:43.245Z,100530.78
2022-10-25T17:39:47.132Z,100525.50
2022-10-25T17:44:50.077Z,100517.09
2022-10-25T17:49:54.246Z,100523.47
2022-10-25T17:54:58.289Z,100521.34
2022-10-25T18:00:00.985Z,100521.75
2022-10-25T18:10:27.709Z,100527.41
2022-10-25T18:15:30.351Z,100537.19
2022-10-25T18:20:32.825Z,100522.22
2022-10-25T18:25:36.861Z,100527.16
2022-10-25T18:30:39.553Z,100529.09
2022-10-25T18:35:42.122Z,100544.94
2022-10-25T18:40:46.121Z,100538.13
2022-10-25T18:45:48.802Z,100534.00
2022-10-25T18:50:51.300Z,100539.50
2022-10-25T18:55:55.333Z,100536.63
2022-10-25T19:00:58.295Z,100534.47
2022-10-25T19:06:01.027Z,100537.16
2022-10-25T19:11:05.804Z,100534.41
2022-10-25T19:16:09.470Z,100531.56
2022-10-25T19:21:14.710Z,100527.53
2022-10-25T19:26:20.676Z,100524.25
2022-10-25T19:31:23.478Z,100524.91
2022-10-25T19:36:26.008Z,100520.53
2022-10-25T19:41:30.120Z,100518.22
2022-10-25T19:46:32.920Z,100514.47
2022-10-25T19:51:35.643Z,100515.69
2022-10-25T19:56:39.596Z,100523.72
2022-10-25T20:01:43.498Z,100529.47
2022-10-25T20:06:46.328Z,100529.75
2022-10-25T20:11:50.248Z,100534.44
2022-10-25T20:16:52.994Z,100526.16
2022-10-25T20:21:55.573Z,100525.81
2022-10-25T20:27:01.893Z,100523.03
2022-10-25T20:32:04.886Z,100522.06
2022-10-25T20:37:09.704Z,100527.66
2022-10-25T20:42:13.812Z,100525.97
2022-10-25T20:47:16.604Z,100530.88
2022-10-25T20:52:19.378Z,100536.75
2022-10-25T20:57:23.505Z,100537.88
2022-10-25T21:02:26.414Z,100527.13
2022-10-25T21:07:30.878Z,100525.63
2022-10-25T21:12:35.036Z,100534.31
2022-10-25T21:17:37.766Z,100532.59
2022-10-25T21:22:41.071Z,100531.16
2022-10-25T21:27:45.403Z,100528.34
2022-10-25T21:32:48.377Z,100527.25
2022-10-25T21:37:51.394Z,100524.91
2022-10-25T21:42:58.801Z,100516.25
2022-10-25T21:48:01.536Z,100512.09
2022-10-25T21:53:04.164Z,100508.69
2022-10-25T21:58:08.244Z,100507.69
2022-10-25T22:03:11.040Z,100500.88
2022-10-25T22:08:13.765Z,100497.19
2022-10-25T22:13:17.649Z,100509.28
2022-10-25T22:18:20.368Z,100513.78
2022-10-25T22:23:23.000Z,100513.16
2022-10-25T22:28:27.101Z,100510.34
2022-10-25T22:33:30.561Z,100508.41
2022-10-25T22:38:34.862Z,100510.72
2022-10-25T22:43:39.714Z,100506.91
2022-10-25T22:48:44.288Z,100512.03
2022-10-25T22:53:47.128Z,100506.41
2022-10-25T22:58:52.883Z,100520.34
2022-10-25T23:03:57.118Z,100510.69
2022-10-25T23:09:02.115Z,100511.16
2022-10-25T23:14:07.405Z,100517.38
2022-10-25T23:19:10.269Z,100500.03
2022-10-25T23:24:13.001Z,100507.25
2022-10-25T23:29:16.917Z,100509.88
2022-10-25T23:34:19.691Z,100498.66
2022-10-25T23:39:22.521Z,100499.63
2022-10-25T23:44:26.437Z,100491.88
2022-10-25T23:49:29.148Z,100495.97
2022-10-25T23:54:31.680Z,100493.63
2022-10-25T23:59:35.802Z,100495.22
